AirNav   Everest Fuels
 
 1349 users online  

KTFP McCampbell-Porter Airport
Ingleside, Texas, USA

GOING TO INGLESIDE?


FAA INFORMATION EFFECTIVE 21 MAY 2020

Location

FAA Identifier: TFP
Lat/Long: 27-54-46.9000N 097-12-41.4000W
27-54.781667N 097-12.690000W
27.9130278,-97.2115000
(estimated)
Elevation: 17.6 ft. / 5.4 m (surveyed)
Variation: 07E (1985)
From city: 2 miles N of INGLESIDE, TX
Time zone: UTC -5 (UTC -6 during Standard Time)
Zip code: 78336

Airport Operations

Airport use: Open to the public
Activation date: 03/1991
Control tower: no
ARTCC: HOUSTON CENTER
FSS: SAN ANGELO FLIGHT SERVICE STATION
NOTAMs facility: SJT (NOTAM-D service available)
Attendance: 0800-1800
Wind indicator: lighted
Segmented circle: yes
Lights: MIRL RWY 13/31 PRESET LOW INTST; TO INCR INTST ACTVT - CTAF.
Beacon: white-green (lighted land airport)
Operates sunset to sunrise.

Airport Communications

CTAF/UNICOM: 122.7
WX AWOS-3: 118.775 (361-758-8961)
CORPUS APPROACH: 120.9
CORPUS DEPARTURE: 120.9
WX AWOS-3 at RAS (9 nm SE): 118.425 (361-749-0537)
WX ASOS at RKP (14 nm NE): 119.275 (361-729-2372)
WX ASOS at CRP (18 nm SW): PHONE 361-289-0191
WX AWOS-3 at T69 (19 nm NW): 118.25 (361-364-1844)

Nearby radio navigation aids

VOR radial/distance  VOR name  Freq  Var
CRPr078/12.4CORPUS CHRISTI VORTAC115.5009E

 
NDB name  Hdg/Dist  Freq  Var  ID
MELLON RANCH175/22.037506EMNO -- -. ---

Airport Services

Fuel available: 100LL JET-A
FUEL SELF-SVC.
Parking: hangars and tiedowns
Airframe service: MAJOR
Powerplant service: MAJOR

Runway Information

Runway 13/31

Dimensions: 5000 x 75 ft. / 1524 x 23 m
Surface: asphalt, in good condition
Runway edge lights: medium intensity
RUNWAY 13  RUNWAY 31
Latitude: 27-55.096700N27-54.466995N
Longitude: 097-12.989438W097-12.389185W
Elevation: 15.0 ft.13.2 ft.
Traffic pattern: leftleft
Runway heading: 133 magnetic, 140 true313 magnetic, 320 true
Markings: nonprecision, in good conditionnonprecision, in good condition
Visual slope indicator: 2-light PAPI on left (3.00 degrees glide path)2-light PAPI on left (3.00 degrees glide path)
Touchdown point: yes, no lightsyes, no lights

Airport Ownership and Management from official FAA records

Ownership: Publicly-owned
Owner: SAN PATRICIO COUNTY
400 WEST SINTON ST.
SINTON, TX 78387
Phone (361) 226-0112
Manager: GARY LEE DAVIS
3141 FM 3512
ARANSAS PASS, TX 78336
Phone (361) 226-0112
317-410-0724

Airport Operational Statistics

Aircraft based on the field: 45
Single engine airplanes: 36
Multi engine airplanes: 7
Jet airplanes: 1
Helicopters: 1
    
Aircraft operations: avg 85/day *
48% local general aviation
32% transient general aviation
19% military
* for 12-month period ending 09 March 2017

Additional Remarks

FOR CD CTC CORPUS CHRISTI APCH AT 361-299-4230.

Instrument Procedures

NOTE: All procedures below are presented as PDF files. If you need a reader for these files, you should download the free Adobe Reader.

NOT FOR NAVIGATION. Please procure official charts for flight.
FAA instrument procedures published for use from 21 May 2020 at 0901Z to 18 June 2020 at 0900Z.

 
IAPs - Instrument Approach Procedures
RNAV (GPS) RWY 13   download (241KB)
RNAV (GPS) RWY 31   download (241KB)
NOTE: Special Alternate Minimums apply   download (29KB)

Other nearby airports with instrument procedures:

KRAS - Mustang Beach Airport (9 nm SE)
KRKP - Aransas County Airport (14 nm NE)
KNGP - Corpus Christi Naval Air Station/Truax Field (14 nm S)
KCRP - Corpus Christi International Airport (18 nm SW)
T69 - Alfred C 'Bubba' Thomas Airport (19 nm NW)
 
Loc | Ops | Rwys | IFR | FBO | Links
Com | Nav | Svcs | Stats | Notes
Area around KTFP (McCampbell-Porter Airport)
 
Road maps at: MapQuest Bing Google
 
Aerial photo
WARNING: Photo may not be current or correct
Aerial photo of KTFP (McCampbell-Porter Airport)
Do you have a better or more recent aerial photo of McCampbell-Porter Airport that you would like to share? If so, please send us your photo.

 
Sectional chart

 
Airport diagram
CAUTION: Diagram may not be current
Diagram of KTFP (McCampbell-Porter Airport)
 
Airport distance calculator
Flying to McCampbell-Porter Airport? Find the distance to fly.

From to KTFP

Sunrise and sunset
Times for 01-Jun-2020
 Local
(UTC-5)
 Zulu
(UTC)
Morning civil twilight06:0711:07
Sunrise06:3411:34
Sunset20:2001:20
Evening civil twilight20:4601:46

Current date and time
Zulu (UTC)  01-Jun-2020 16:05:47
Local (UTC-5)  01-Jun-2020 11:05:47
 
METAR
KTFP 011555Z AUTO 02008KT 2 1/2SM TSRA BKN007 OVC014 23/22 A3011 RMK AO2 LTG DSNT ALQS T02260223 PNO
KRAS 
9nm SE 
011555Z AUTO 32005KT 2SM TSRA BR OVC011 23/21 A3012 RMK AO2 VIS 1V3 1/2 LTG DSNT ALQDS P0153 T02280215
KRKP 
13nm NE 
011553Z AUTO 36013KT 1 1/2SM TSRA BR FEW021 BKN039 OVC050 22/21 A3009 RMK AO2 LTG DSNT ALQDS TSE08B16 SLP191 P0070 T02220211
KNGP 
14nm S 
011556Z 11004KT 1 3/4SM +TSRA BR FEW007 BKN017CB OVC026 23/23 A3010 RMK AO2 SLP192 TSE28TSB53 OCNL LTGIC OHD TS MOV NW TS OHD MOV N T1 SET P0111 T02280228
KCRP 
18nm SW 
011551Z 05005KT 1 1/2SM R13/5000VP6000FT +RA BR SCT011 BKN023CB OVC033 23/22 A3010 RMK AO2 LTG DSNT NE AND E TSE36 SLP193 VIS N-NE 2 1/2 TS DSIPT P0035 T02280222
TAF
KNGP 
14nm S 
0109/0207 12010KT 9999 VCSH FEW015 SCT025 BKN060 OVC150 QNH2998INS TEMPO 0109/011 4800 SHRA SCT012 BKN018 OVC040 FM011100 11012KT 9999 VCTS SCT012 BKN018CB OVC045 QNH3000INS TEMPO 0111/0116 VRB20G30KT 2400 +TSRA BR SCT009 BKN014CB OVC040 FM011800 11014KT 9999 VCTS FEW012 SCT025CB SCT050 BKN150 OVC250 QNH2995INS FM012100 10012KT 9999 FEW012 FEW025 SCT060 BKN150 BKN250 QNH2993INS FM020100 13010KT 9999 VCSH SCT012 SCT025 OVC050 QNH2994INS TEMPO 0203/0207 SCT012 BKN025 OVC050 AUTOMATED SENSOR METWAT
KCRP 
18nm SW 
011120Z 0112/0212 07005KT P6SM SHRA VCTS SCT018CB OVC030 TEMPO 0112/0116 6SM TSRA OVC015CB FM011600 10011KT 6SM SHRA VCTS BKN025CB TEMPO 0116/0120 5SM TSRA OVC010CB FM020200 10007KT P6SM VCSH OVC040 FM020900 VRB03KT P6SM OVC025
NOTAMs
Click for the latest NOTAMs
NOTAMs are issued by the DoD/FAA and will open in a separate window not controlled by AirNav.

 

 
 

FBO, Fuel Providers, and Aircraft Ground Support

  
 Business Name 
 
 Contact 
 
 Services / Description 
 
Fuel Prices
 
Comments
  
Corpus Christi Jet Center UNICOM 122.70
361-758-2000
[web site]
[email]
We will match KCRP contract fuel rates!
More info and photos of Corpus Christi Jet Center
Avfuel
100LL Jet A
FS $4.20 $4.20 
SS $3.70 $4.20 
 Updated 28-May-2020
 
   4 read write
FS=Full service
SS=Self service
Update Fuel Prices
 

Would you like to see your business listed on this page?

 If your business provides an interesting product or service to pilots, flight crews, aircraft, or users of the McCampbell-Porter Airport, you should consider listing it here.  To start the listing process, click on the button below
 
Add a business
 

Other Pages about McCampbell-Porter Airport

Update a link
 
Copyright © AirNav, LLC. All rights reserved. Privacy Policy  Contact